Latest Coastal Weather Observations for Bunbury

IDW60701

Issued at 7:33 am WST Wednesday 29 March 2017 (issued every 10 minutes, with the page automatically refreshed every 10 minutes)

About coastal observations | Map of coastal stations | Coastal observations for WA | Marine services | Other Formats
Station Details ID: 009965 Name: BUNBURY Lat: -33.36 Lon: 115.64 Height: 5.2 m
Data from the previous 72 hours. | See also: Recent months at Bunbury
Date/Time
WST
Temp
°C
Wind Pressure Rain since
9am
mm
Weather Cloud Vis
km
Sea
Height
m
Swell
Dir  Spd
kts
Gust
kts
hPa Trend Height
m
Period
s
Dir
29/07:30am 10.7 S 4 5 1026.4 - 0.0 - - - - - - -
29/07:00am 9.6 S 4 5 1026.4 - 0.0 - - - - - - -
29/06:30am 9.4 S 3 5 1026.1 - 0.0 - - - - - - -
29/06:00am 9.7 S 3 4 1025.8 - 0.0 - - - - - - -
29/05:30am 10.3 SSE 3 5 1025.5 - 0.0 - - - - - - -
29/05:00am 10.3 SSE 4 6 1025.2 - 0.0 - - - - - - -
29/04:30am 10.8 SSE 4 5 1024.8 - 0.0 - - - - - - -
29/04:00am 11.7 SSE 5 6 1024.5 - 0.0 - - - - - - -
29/03:30am 11.1 S 5 6 1024.1 - 0.0 - - - - - - -
29/03:00am 10.6 S 4 5 1023.9 - 0.0 - - - - - - -
29/02:30am 10.6 S 3 4 1023.8 - 0.0 - - - - - - -
29/02:00am 11.3 S 3 5 1023.7 - 0.0 - - - - - - -
29/01:30am 11.9 SSE 4 6 1023.4 - 0.0 - - - - - - -
29/01:00am 12.0 SE 4 6 1023.2 - 0.0 - - - - - - -
29/12:30am 12.5 S 4 6 1023.1 - 0.0 - - - - - - -
29/12:00am 12.9 SSE 4 5 1022.9 - 0.0 - - - - - - -
 
Date/Time
WST
Temp
°C
Wind Pressure Rain since
9am
mm
Weather Cloud Vis
km
Sea
Height
m
Swell
Dir  Spd
kts
Gust
kts
hPa Trend Height
m
Period
s
Dir
28/11:30pm 13.4 S 4 6 1022.7 - 0.0 - - - - - - -
28/11:00pm 13.8 SSE 4 6 1022.5 - 0.0 - - - - - - -
28/10:30pm 14.4 SSE 6 9 1022.3 - 0.0 - - - - - - -
28/10:00pm 14.5 S 6 9 1022.2 - 0.0 - - - - - - -
28/09:30pm 14.9 SSE 7 11 1022.0 - 0.0 - - - - - - -
28/09:00pm 15.5 SSE 7 11 1021.8 - 0.0 - - - - - - -
28/08:30pm 15.9 S 8 13 1021.6 - 0.0 - - - - - - -
28/08:00pm 16.2 S 10 14 1021.1 - 0.0 - - - - - - -
28/07:30pm 16.4 S 7 10 1020.4 - 0.0 - - - - - - -
28/07:00pm 18.5 S 8 13 1019.6 - 0.0 - - - - - - -
28/06:30pm 18.4 S 7 9 1019.2 - 0.0 - - - - - - -
28/06:00pm 19.6 SSW 8 12 1019.0 - 0.0 - - - - - - -
28/05:30pm 20.3 SSW 12 16 1018.6 - 0.0 - - - - - - -
28/05:00pm 20.7 SW 12 20 1018.1 - 0.0 - - - - - - -
28/04:30pm 21.3 SW 12 19 1017.9 - 0.0 - - - - - - -
28/04:00pm 21.4 WSW 12 19 1017.7 - 0.0 - - - - - - -
28/03:30pm 21.6 WSW 11 17 1017.8 - 0.0 - - - - - - -
28/03:00pm 21.8 W 11 16 1017.8 - 0.0 - - - - - - -
28/02:30pm 22.1 W 11 16 1017.8 - 0.0 - - - - - - -
28/02:00pm 21.9 WSW 11 17 1018.0 - 0.0 - - - - - - -
28/01:30pm 21.8 WSW 10 16 1018.2 - 0.0 - - - - - - -
28/01:00pm 22.6 WSW 10 14 1018.3 - 0.0 - - - - - - -
28/12:30pm 21.6 WSW 11 15 1018.6 - 0.0 - - - - - - -
28/12:00pm 20.8 WSW 11 16 1018.9 - 0.0 - - - - - - -
28/11:30am 21.3 SW 11 15 1019.0 - 0.0 - - - - - - -
28/11:00am 21.3 SW 8 12 1019.2 - 0.0 - - - - - - -
28/10:30am 20.0 WSW 7 10 1019.4 - 0.0 - - - - - - -
28/10:00am 19.5 SSW 8 14 1019.4 - 0.0 - - - - - - -
28/09:30am 18.2 SW 3 5 1019.3 - 0.0 - - - - - - -
28/09:00am 18.0 N 1 3 1019.2 - 0.0 - - - - - - -
28/08:30am 16.7 NNE 2 3 1019.1 - 0.0 - - - - - - -
28/08:00am 15.9 NE 1 3 1019.1 - 0.0 - - - - - - -
28/07:30am 15.2 CALM 0 0 1019.0 - 0.0 - - - - - - -
28/07:00am 14.6 ENE 1 2 1019.0 - 0.0 - - - - - - -
28/06:30am 14.7 SSE 2 3 1018.9 - 0.0 - - - - - - -
28/06:00am 14.3 ENE 1 3 1018.9 - 0.0 - - - - - - -
28/05:30am 14.8 CALM 0 0 1018.9 - 0.0 - - - - - - -
28/05:00am 14.7 CALM 0 0 1018.9 - 0.0 - - - - - - -
28/04:30am 14.6 CALM 0 0 1018.9 - 0.0 - - - - - - -
28/04:00am 14.7 ENE 1 2 1019.0 - 0.0 - - - - - - -
28/03:30am 14.6 CALM 0 0 1019.0 - 0.0 - - - - - - -
28/03:00am 14.6 E 2 3 1019.1 - 0.0 - - - - - - -
28/02:30am 14.4 ENE 1 2 1019.3 - 0.0 - - - - - - -
28/02:00am 14.2 ENE 2 3 1019.4 - 0.0 - - - - - - -
28/01:30am 14.2 ESE 1 2 1019.4 - 0.0 - - - - - - -
28/01:00am 13.9 E 2 3 1019.6 - 0.0 - - - - - - -
28/12:30am 13.4 ESE 2 5 1019.8 - 0.0 - - - - - - -
28/12:00am 12.6 SE 2 3 1020.0 - 0.0 - - - - - - -
 
Date/Time
WST
Temp
°C
Wind Pressure Rain since
9am
mm
Weather Cloud Vis
km
Sea
Height
m
Swell
Dir  Spd
kts
Gust
kts
hPa Trend Height
m
Period
s
Dir
27/11:30pm 11.6 CALM 0 0 1020.0 - 0.0 - - - - - - -
27/11:00pm 12.2 SSW 2 3 1020.1 - 0.0 - - - - - - -
27/10:30pm 12.6 SSW 3 4 1020.3 - 0.0 - - - - - - -
27/10:00pm 12.9 SW 2 3 1020.6 - 0.0 - - - - - - -
27/09:30pm 13.1 S 2 3 1020.2 - 0.0 - - - - - - -
27/09:00pm 14.0 SSW 2 3 1020.4 - 0.0 - - - - - - -
27/08:30pm 14.4 S 2 3 1020.2 - 0.0 - - - - - - -
27/08:00pm 14.6 S 3 5 1020.1 - 0.0 - - - - - - -
27/07:30pm 15.5 S 2 3 1020.3 - 0.0 - - - - - - -
27/07:00pm 16.3 SSW 5 7 1020.1 - 0.0 - - - - - - -
27/06:30pm 16.9 SSW 5 7 1020.2 - 0.0 - - - - - - -
27/06:00pm 17.8 SW 5 8 1020.2 - 0.0 - - - - - - -
27/05:30pm 18.9 SW 6 10 1020.2 - 0.0 - - - - - - -
27/05:00pm 19.7 WSW 6 9 1020.4 - 0.0 - - - - - - -
27/04:30pm 19.3 W 4 7 1020.5 - 0.0 - - - - - - -
27/04:00pm 19.1 W 4 7 1020.9 - 0.0 - - - - - - -
27/03:30pm 19.3 W 6 10 1021.0 - 0.0 - - - - - - -
27/03:00pm 19.4 WNW 7 10 1021.0 - 0.0 - - - - - - -
27/02:30pm 19.7 WNW 7 11 1021.1 - 0.0 - - - - - - -
27/02:00pm 20.0 NW 7 11 1021.4 - 0.0 - - - - - - -
27/01:30pm 20.7 WNW 5 9 1021.8 - 0.0 - - - - - - -
27/01:00pm 20.2 WNW 5 10 1022.2 - 0.0 - - - - - - -
27/12:30pm 19.8 W 5 9 1022.4 - 0.0 - - - - - - -
27/12:00pm 20.1 W 5 8 1022.7 - 0.0 - - - - - - -
27/11:30am 19.5 WNW 5 9 1023.2 - 0.0 - - - - - - -
27/11:00am 19.7 NW 3 7 1023.3 - 0.0 - - - - - - -
27/10:30am 19.4 NE 3 5 1023.4 - 0.0 - - - - - - -
27/10:00am 18.3 NNE 2 4 1023.5 - 0.0 - - - - - - -
27/09:30am 16.9 NE 3 5 1023.6 - 0.0 - - - - - - -
27/09:00am 15.9 NNE 4 5 1023.5 - 0.2 - - - - - - -
27/08:30am 14.2 ENE 4 5 1023.3 - 0.2 - - - - - - -
27/08:00am 11.6 ENE 3 3 1023.2 - 0.2 - - - - - - -
27/07:30am 9.1 ENE 3 4 1023.2 - 0.2 - - - - - - -
27/07:00am - E 2 3 1023.0 - 0.2 - - - - - - -
27/06:30am 5.3 E 2 2 1022.8 - 0.2 - - - - - - -
27/06:00am 5.8 CALM 0 0 1022.3 - 0.2 - - - - - - -
27/05:30am 5.8 CALM 0 0 1022.0 - 0.2 - - - - - - -
27/05:00am 6.1 CALM 0 1 1021.6 - 0.2 - - - - - - -
27/04:30am 6.4 E 2 2 1021.2 - 0.2 - - - - - - -
27/04:00am 5.9 CALM 0 0 1021.0 - 0.2 - - - - - - -
27/03:30am 7.0 CALM 0 0 1020.8 - 0.2 - - - - - - -
27/03:00am 6.1 CALM 0 0 1020.8 - 0.2 - - - - - - -
27/02:30am 7.2 CALM 0 0 1020.8 - 0.2 - - - - - - -
27/02:00am 7.0 CALM 0 0 1020.5 - 0.2 - - - - - - -
27/01:30am 7.9 ESE 2 3 1020.5 - 0.2 - - - - - - -
27/01:00am 7.6 ESE 2 3 1020.5 - 0.2 - - - - - - -
27/12:30am 7.4 SE 1 2 1020.8 - 0.2 - - - - - - -
27/12:00am - ESE 2 4 1020.7 - 0.2 - - - - - - -
 
Date/Time
WST
Temp
°C
Wind Pressure Rain since
9am
mm
Weather Cloud Vis
km
Sea
Height
m
Swell
Dir  Spd
kts
Gust
kts
hPa Trend Height
m
Period
s
Dir
26/11:30pm 8.8 CALM 0 0 1020.9 - 0.2 - - - - - - -
26/11:00pm 9.3 CALM 0 0 1020.7 - 0.2 - - - - - - -
26/10:30pm 9.0 CALM 0 0 1020.4 - 0.2 - - - - - - -
26/10:00pm 9.5 CALM 0 0 1020.2 - 0.2 - - - - - - -
26/09:30pm 11.5 CALM 0 0 1020.3 - 0.2 - - - - - - -
26/09:00pm 11.2 CALM 0 0 1020.3 - 0.2 - - - - - - -
26/08:30pm 12.2 CALM 0 1 1020.1 - 0.2 - - - - - - -
26/08:00pm 13.9 SSW 2 2 1019.7 - 0.2 - - - - - - -
26/07:30pm 14.9 S 4 6 1019.1 - 0.2 - - - - - - -
26/07:00pm 15.7 SSW 5 8 1018.4 - 0.2 - - - - - - -
26/06:30pm 16.6 SSW 10 15 1018.1 - 0.2 - - - - - - -
26/06:00pm 17.2 SSW 10 16 1017.3 - 0.2 - - - - - - -
26/05:30pm 18.0 SW 12 19 1016.8 - 0.2 - - - - - - -
26/05:00pm 18.9 SW 11 18 1016.5 - 0.2 - - - - - - -
26/04:30pm 19.6 SW 12 19 1016.2 - 0.2 - - - - - - -
26/04:00pm 19.7 WSW 13 20 1015.7 - 0.2 - - - - - - -
26/03:30pm 19.7 SW 12 20 1015.4 - 0.2 - - - - - - -
26/03:00pm 20.0 SW 14 25 1015.1 - 0.2 - - - - - - -
26/02:30pm 20.1 SW 15 23 1014.8 - 0.2 - - - - - - -
26/02:00pm 20.4 WSW 14 24 1014.9 - 0.2 - - - - - - -
26/01:38pm 20.1 SW 15 28 1014.8 - 0.2 - - - - - - -
26/01:30pm 20.0 SW 13 23 1014.9 - 0.2 - - - - - - -
26/01:10pm 19.7 SW 16 27 1014.7 - 0.2 - - - - - - -
26/01:00pm 19.9 WSW 15 24 1014.6 - 0.2 - - - - - - -
26/12:30pm 19.4 WSW 15 28 1014.7 - 0.2 - - - - - - -
26/12:28pm 18.8 WSW 15 28 1014.7 - 0.2 - - - - - - -
26/12:00pm 17.1 W 11 17 1014.6 - 0.2 Recent precip. - - - - - -
26/11:42am 19.0 W 15 28 1014.6 - 0.2 - - - - - - -
26/11:30am 19.8 WSW 14 24 1014.3 - 0.2 - - - - - - -
26/11:00am 18.5 SW 13 24 1014.3 - 0.0 - - - - - - -
26/10:30am 19.1 WSW 11 19 1013.7 - 0.0 - - - - - - -
26/10:00am 17.9 WSW 13 21 1013.4 - 0.0 - - - - - - -
26/09:38am 19.4 WSW 15 26 1012.9 - 0.0 - - - - - - -
26/09:30am 19.0 WSW 14 23 1012.7 - 0.0 - - - - - - -
26/09:08am 18.6 WSW 15 26 1012.6 - 0.0 - - - - - - -
26/09:00am 18.5 WSW 14 26 1012.4 - 1.4 - - - - - - -
26/08:37am 18.3 WSW 15 27 1012.0 - 1.4 - - - - - - -
26/08:30am 18.2 WSW 14 24 1011.9 - 1.4 - - - - - - -
26/08:00am 17.8 WSW 14 24 1011.5 - 1.4 - - - - - - -
26/07:32am 17.5 WSW 15 25 1011.0 - 1.4 - - - - - - -

Other Formats:

Comma delimited format used in spreadsheet applications
http://www.bom.gov.au/fwo/IDW60701/IDW60701.94604.axf

JavaScript Object Notation format (JSON) in row-major order
http://www.bom.gov.au/fwo/IDW60701/IDW60701.94604.json